Time;durP1;ratioP1;P1;durP2;ratioP2;P2;SDS_P1;SDS_P2;PMS_P1;PMS_P2;Temp;Humidity;BMP_temperature;BMP_pressure;BME280_temperature;BME280_humidity;BME280_pressure;Samples;Min_cycle;Max_cycle;Signal;HPM_P1;HPM_P2
2021/05/18 00:01:11;;;;;;;6.18;4.43;;;13.20;99.90;;;;;;4992192;28;20034;-71
2021/05/18 00:03:37;;;;;;;6.78;5.00;;;13.20;99.90;;;;;;4991929;28;20034;-71
2021/05/18 00:06:04;;;;;;;8.43;5.50;;;13.30;99.90;;;;;;4991994;28;20018;-71
2021/05/18 00:08:31;;;;;;;6.93;5.30;;;13.20;99.90;;;;;;4992592;28;20026;-71
2021/05/18 00:13:49;;;;;;;7.60;5.85;;;13.30;99.90;;;;;;4991822;28;20435;-70
2021/05/18 00:16:15;;;;;;;9.65;6.35;;;13.20;99.90;;;;;;4991653;28;20046;-73
2021/05/18 00:18:42;;;;;;;11.13;7.35;;;13.30;99.90;;;;;;4990765;28;20041;-71
2021/05/18 00:21:07;;;;;;;9.32;7.03;;;13.20;99.90;;;;;;4991659;28;20027;-72
2021/05/18 00:23:35;;;;;;;11.45;8.40;;;13.30;99.90;;;;;;4993438;28;20363;-70
2021/05/18 00:26:00;;;;;;;10.95;7.07;;;13.20;99.90;;;;;;4991910;28;20041;-71
2021/05/18 00:28:26;;;;;;;12.00;8.05;;;13.20;99.90;;;;;;4990230;28;20038;-72
2021/05/18 00:30:52;;;;;;;13.68;7.75;;;13.20;99.90;;;;;;4991705;28;20038;-72
2021/05/18 00:33:21;;;;;;;12.18;8.27;;;13.40;99.90;;;;;;4991506;28;20058;-73
2021/05/18 00:35:48;;;;;;;11.43;8.73;;;13.20;99.90;;;;;;4993218;28;20045;-73
2021/05/18 00:38:16;;;;;;;10.77;7.72;;;13.20;99.90;;;;;;4991252;28;20046;-71
2021/05/18 00:40:43;;;;;;;11.93;8.65;;;13.30;99.90;;;;;;4991654;28;20023;-72
2021/05/18 00:43:11;;;;;;;17.75;10.32;;;13.20;99.90;;;;;;4991427;28;20034;-70
2021/05/18 00:45:39;;;;;;;15.93;9.57;;;13.20;99.90;;;;;;4991466;28;20129;-71
2021/05/18 00:48:05;;;;;;;;;;;13.00;99.90;;;;;;4991615;28;20066;-71
2021/05/18 00:50:36;;;;;;;19.92;9.90;;;13.10;99.90;;;;;;4992474;28;20000;-71
2021/05/18 00:53:03;;;;;;;17.75;10.48;;;13.10;99.90;;;;;;4990987;28;20349;-72
2021/05/18 01:00:39;;;;;;;17.73;10.07;;;13.10;99.90;;;;;;4991133;28;20487;-71
2021/05/18 01:03:05;;;;;;;20.90;11.30;;;13.00;99.90;;;;;;4991217;28;20038;-71
2021/05/18 01:08:15;;;;;;;17.92;10.30;;;12.90;99.90;;;;;;4990658;28;20049;-72
2021/05/18 01:10:43;;;;;;;19.13;11.60;;;12.80;99.90;;;;;;4990778;28;20026;-72
2021/05/18 01:13:09;;;;;;;20.47;10.70;;;12.70;99.90;;;;;;4991043;28;20360;-72
2021/05/18 01:15:35;;;;;;;19.55;10.85;;;12.70;99.90;;;;;;4990942;28;20256;-72
2021/05/18 01:18:01;;;;;;;19.27;10.80;;;12.80;99.90;;;;;;4990555;28;20419;-71
2021/05/18 01:20:27;;;;;;;16.48;11.30;;;12.70;99.90;;;;;;4991027;28;20040;-72
2021/05/18 01:22:52;;;;;;;19.20;10.93;;;12.50;99.90;;;;;;4990253;28;20494;-72
2021/05/18 01:25:20;;;;;;;20.20;11.23;;;12.60;99.90;;;;;;4990297;28;20342;-72
2021/05/18 01:27:47;;;;;;;15.18;9.80;;;12.60;99.90;;;;;;4990305;28;20129;-72
2021/05/18 01:30:13;;;;;;;17.90;10.60;;;12.80;99.90;;;;;;4989889;28;20050;-71
2021/05/18 01:32:42;;;;;;;22.90;10.45;;;12.80;99.90;;;;;;4991960;28;20028;-70
2021/05/18 01:35:10;;;;;;;20.58;11.52;;;12.70;99.90;;;;;;4987286;28;20054;-70
2021/05/18 01:37:36;;;;;;;20.25;11.18;;;12.60;99.90;;;;;;4971005;28;20050;-70
2021/05/18 01:40:13;;;;;;;21.17;11.13;;;12.40;99.90;;;;;;4969791;28;20380;-71
2021/05/18 01:42:49;;;;;;;17.45;10.07;;;12.50;99.90;;;;;;4970704;28;20031;-71
2021/05/18 01:45:23;;;;;;;17.05;10.48;;;12.50;99.90;;;;;;4971118;28;20037;-71
2021/05/18 01:47:52;;;;;;;18.67;10.05;;;12.60;99.90;;;;;;4972228;28;20027;-72
2021/05/18 01:50:19;;;;;;;21.17;10.95;;;12.60;99.90;;;;;;4970689;28;20043;-71
2021/05/18 01:52:45;;;;;;;22.17;10.02;;;12.60;99.90;;;;;;4970909;28;20209;-72
2021/05/18 01:55:15;;;;;;;19.08;10.30;;;12.60;99.90;;;;;;4970576;28;20126;-71
2021/05/18 01:57:41;;;;;;;18.13;10.65;;;12.50;99.90;;;;;;4970479;28;20124;-71
2021/05/18 02:00:09;;;;;;;21.40;9.75;;;12.50;99.90;;;;;;4970455;28;20019;-71
2021/05/18 02:02:34;;;;;;;19.52;10.38;;;12.40;99.90;;;;;;4972326;28;20034;-72
2021/05/18 02:05:07;;;;;;;18.95;10.25;;;12.30;99.90;;;;;;4970629;28;20369;-72
2021/05/18 02:07:36;;;;;;;18.42;9.95;;;12.40;99.90;;;;;;4969557;28;20053;-72
2021/05/18 02:10:06;;;;;;;19.58;10.88;;;12.40;99.90;;;;;;4970514;28;20127;-71
2021/05/18 02:12:31;;;;;;;19.88;10.23;;;12.40;99.90;;;;;;4970535;28;20051;-72
2021/05/18 02:15:03;;;;;;;25.50;11.02;;;12.40;99.90;;;;;;4970352;28;20465;-71
2021/05/18 02:17:37;;;;;;;18.67;11.45;;;12.40;99.90;;;;;;4972293;28;20089;-72
2021/05/18 02:20:31;;;;;;;23.55;11.68;;;12.40;99.90;;;;;;4970601;28;20257;-72
2021/05/18 02:25:42;;;;;;;23.27;12.13;;;12.40;99.90;;;;;;4970532;28;20049;-71
2021/05/18 02:28:08;;;;;;;22.73;13.30;;;12.50;99.90;;;;;;4969443;28;20043;-71
2021/05/18 02:30:36;;;;;;;24.90;14.20;;;12.50;99.90;;;;;;4970392;28;20068;-71
2021/05/18 02:33:03;;;;;;;24.58;14.35;;;12.30;99.90;;;;;;4969066;28;20027;-71
2021/05/18 02:35:29;;;;;;;29.73;14.57;;;12.30;99.90;;;;;;4971689;28;20174;-71
2021/05/18 02:37:55;;;;;;;33.38;15.00;;;12.20;99.90;;;;;;4970105;28;20801;-71
2021/05/18 02:40:29;;;;;;;28.23;15.05;;;12.20;99.90;;;;;;4970325;28;20097;-71
2021/05/18 02:42:55;;;;;;;27.92;14.63;;;12.20;99.90;;;;;;4970218;28;20122;-71
2021/05/18 02:50:37;;;;;;;27.92;14.73;;;12.10;99.90;;;;;;4970450;28;20090;-71
2021/05/18 02:53:03;;;;;;;28.92;15.50;;;12.10;99.90;;;;;;4970353;28;20059;-72
2021/05/18 02:55:47;;;;;;;30.27;15.80;;;12.20;99.90;;;;;;4970472;28;20066;-72
2021/05/18 02:58:14;;;;;;;30.90;16.27;;;12.10;99.90;;;;;;4970236;28;20097;-71
2021/05/18 03:00:40;;;;;;;31.45;14.73;;;12.00;99.90;;;;;;4970168;28;20126;-72
2021/05/18 03:03:06;;;;;;;32.10;16.02;;;12.00;99.90;;;;;;4969923;28;20042;-70
2021/05/18 03:05:32;;;;;;;30.50;16.23;;;12.00;99.90;;;;;;4971574;28;20027;-71
2021/05/18 03:07:57;;;;;;;29.88;16.70;;;12.10;99.90;;;;;;4969710;28;20382;-72
2021/05/18 03:10:23;;;;;;;30.42;15.07;;;12.20;99.90;;;;;;4969816;28;20549;-73
2021/05/18 03:12:49;;;;;;;37.22;17.80;;;12.20;99.90;;;;;;4970040;28;20142;-71
2021/05/18 03:15:16;;;;;;;32.00;16.45;;;12.10;99.90;;;;;;4968344;28;20054;-72
2021/05/18 03:17:42;;;;;;;28.65;15.43;;;12.10;99.90;;;;;;4971242;28;20110;-71
2021/05/18 03:20:13;;;;;;;35.00;16.60;;;12.10;99.90;;;;;;4972793;28;20397;-72
2021/05/18 03:22:38;;;;;;;26.80;15.27;;;12.10;99.90;;;;;;4973035;28;20046;-71
2021/05/18 03:25:06;;;;;;;31.85;15.38;;;12.20;99.90;;;;;;4973203;28;20035;-72
2021/05/18 03:27:32;;;;;;;34.47;16.73;;;12.10;99.90;;;;;;4973379;28;20101;-73
2021/05/18 03:30:01;;;;;;;38.17;16.52;;;12.10;99.90;;;;;;4973248;28;20043;-71
2021/05/18 03:35:11;;;;;;;31.13;16.48;;;12.20;99.90;;;;;;4972906;28;20109;-71
2021/05/18 03:37:59;;;;;;;33.90;16.65;;;12.20;99.90;;;;;;4973166;28;20096;-71
2021/05/18 03:40:26;;;;;;;31.17;16.75;;;12.20;99.90;;;;;;4972992;28;20356;-71
2021/05/18 03:43:05;;;;;;;32.95;16.92;;;12.30;99.90;;;;;;4972769;28;20031;-71
2021/05/18 03:45:33;;;;;;;35.38;17.10;;;12.20;99.90;;;;;;4972841;28;20030;-71
2021/05/18 03:53:41;;;;;;;31.20;16.00;;;12.40;99.90;;;;;;4971802;28;20039;-72
2021/05/18 04:04:23;;;;;;;33.65;16.25;;;12.50;99.90;;;;;;4972738;28;20401;-73
2021/05/18 04:18:12;;;;;;;27.75;15.50;;;12.60;99.90;;;;;;4973844;28;20519;-70
2021/05/18 04:20:46;;;;;;;28.50;16.08;;;12.50;99.90;;;;;;4973058;28;20426;-71
2021/05/18 04:26:00;;;;;;;34.53;16.17;;;12.40;99.90;;;;;;4971714;28;20039;-72
2021/05/18 04:50:28;;;;;;;32.58;15.80;;;12.60;99.80;;;;;;4971727;28;20097;-73
2021/05/18 05:00:48;;;;;;;25.92;13.25;;;12.70;99.90;;;;;;4971700;28;20045;-72
2021/05/18 05:16:30;;;;;;;22.92;11.95;;;13.10;99.40;;;;;;4971159;28;20088;-73
2021/05/18 05:18:56;;;;;;;24.13;11.30;;;13.10;99.30;;;;;;4986144;28;20146;-73
2021/05/18 05:21:28;;;;;;;25.98;11.73;;;13.30;99.30;;;;;;4970658;28;20035;-73
2021/05/18 05:23:54;;;;;;;32.63;12.13;;;13.30;99.10;;;;;;4971083;28;20360;-73
2021/05/18 05:26:20;;;;;;;22.98;11.18;;;13.20;98.90;;;;;;4972598;28;20019;-74
2021/05/18 05:28:46;;;;;;;27.38;10.85;;;13.30;98.70;;;;;;4970321;28;20095;-73
2021/05/18 05:31:11;;;;;;;23.27;11.15;;;13.20;98.70;;;;;;4971084;28;20125;-70
2021/05/18 05:33:37;;;;;;;24.58;10.25;;;13.10;98.70;;;;;;4970834;28;20031;-79
2021/05/18 05:36:02;;;;;;;23.15;11.23;;;13.20;98.80;;;;;;4966249;28;20038;-77
2021/05/18 05:38:30;;;;;;;21.83;10.20;;;13.40;98.70;;;;;;4953196;29;20023;-76
2021/05/18 05:40:56;;;;;;;22.20;9.98;;;13.50;98.60;;;;;;4950552;28;20051;-75
2021/05/18 05:43:22;;;;;;;21.63;10.45;;;13.50;98.60;;;;;;4951325;28;20046;-78
2021/05/18 05:45:50;;;;;;;25.42;11.07;;;13.40;98.70;;;;;;4950356;28;20043;-73
2021/05/18 05:48:15;;;;;;;29.17;10.73;;;13.40;98.80;;;;;;4951685;28;20094;-75
2021/05/18 05:50:47;;;;;;;24.52;11.48;;;13.40;99.00;;;;;;4953084;29;20366;-75
2021/05/18 05:53:13;;;;;;;23.73;10.98;;;13.40;99.00;;;;;;4914771;28;20600;-79
2021/05/18 05:55:38;;;;;;;20.77;10.35;;;13.50;99.00;;;;;;4952969;28;20057;-83
2021/05/18 05:58:04;;;;;;;22.42;11.40;;;13.50;99.00;;;;;;4952115;28;20351;-76
2021/05/18 06:00:30;;;;;;;25.02;11.48;;;13.60;99.00;;;;;;4953468;28;20023;-81
2021/05/18 06:02:56;;;;;;;25.42;12.20;;;13.40;98.90;;;;;;4952562;28;20028;-80
2021/05/18 06:05:21;;;;;;;22.38;9.88;;;13.50;99.00;;;;;;4954762;29;20085;-76
2021/05/18 06:07:47;;;;;;;24.08;10.25;;;13.40;98.70;;;;;;4951031;28;20418;-74
2021/05/18 06:10:27;;;;;;;28.83;11.10;;;13.50;98.80;;;;;;4951010;28;20050;-75
2021/05/18 06:15:50;;;;;;;22.20;9.85;;;13.30;98.70;;;;;;4951323;28;20565;-76
2021/05/18 06:43:33;;;;;;;21.65;9.68;;;13.50;98.40;;;;;;4915237;28;20043;-78
2021/05/18 06:48:21;;;;;;;19.38;9.57;;;13.70;98.10;;;;;;4950725;28;20075;-77
2021/05/18 06:50:46;;;;;;;25.10;9.15;;;13.80;97.90;;;;;;4952408;29;20475;-79
2021/05/18 06:53:12;;;;;;;18.13;8.70;;;13.70;97.80;;;;;;4950998;28;20047;-78
2021/05/18 06:55:39;;;;;;;17.17;8.80;;;13.80;97.70;;;;;;4955214;28;20038;-78
2021/05/18 06:58:17;;;;;;;16.35;8.85;;;13.80;97.40;;;;;;4954976;28;20118;-76
2021/05/18 07:00:43;;;;;;;19.52;7.88;;;13.70;97.40;;;;;;4955232;28;20055;-79
2021/05/18 07:03:12;;;;;;;18.35;8.20;;;13.80;97.40;;;;;;4933057;28;20641;-78
2021/05/18 07:05:50;;;;;;;13.35;7.72;;;13.90;97.10;;;;;;4957936;28;20023;-79
2021/05/18 07:10:43;;;;;;;14.30;7.38;;;13.90;97.00;;;;;;4954260;28;19911;-77
2021/05/18 07:13:10;;;;;;;13.00;7.70;;;13.90;97.10;;;;;;4954712;28;20028;-77
2021/05/18 07:15:38;;;;;;;17.30;8.47;;;13.80;97.10;;;;;;4969095;28;20385;-76
2021/05/18 07:18:04;;;;;;;17.90;8.75;;;13.80;97.30;;;;;;4954078;28;20026;-78
2021/05/18 07:20:31;;;;;;;14.93;7.95;;;14.00;97.00;;;;;;4954602;29;20188;-76
2021/05/18 07:22:59;;;;;;;15.90;7.68;;;13.90;97.00;;;;;;4954122;28;20461;-79
2021/05/18 07:25:25;;;;;;;15.15;7.88;;;13.90;97.00;;;;;;4949886;28;20035;-77
2021/05/18 07:27:50;;;;;;;16.20;7.47;;;14.00;96.80;;;;;;4942344;28;20066;-77
2021/05/18 07:30:17;;;;;;;18.33;7.65;;;14.00;96.70;;;;;;4955291;28;20095;-77
2021/05/18 07:32:43;;;;;;;18.63;8.73;;;14.20;96.90;;;;;;4970988;28;20401;-76
2021/05/18 07:35:09;;;;;;;17.73;7.63;;;14.50;96.70;;;;;;4936383;28;20163;-76
2021/05/18 07:37:35;;;;;;;16.80;7.30;;;14.80;96.30;;;;;;4948084;28;20038;-77
2021/05/18 07:40:03;;;;;;;17.15;7.55;;;15.00;96.00;;;;;;4968579;28;20035;-75
2021/05/18 07:42:28;;;;;;;21.05;7.43;;;14.80;95.40;;;;;;4969213;28;20039;-78
2021/05/18 07:44:54;;;;;;;14.30;6.93;;;14.70;95.40;;;;;;4954122;28;20033;-78
2021/05/18 07:47:22;;;;;;;18.98;7.35;;;14.70;95.50;;;;;;4955576;28;20349;-77
2021/05/18 07:49:49;;;;;;;14.75;6.15;;;14.70;95.50;;;;;;4954103;28;20049;-79
2021/05/18 08:05:46;;;;;;;6.45;3.40;;;17.30;90.20;;;;;;4953778;28;20031;-78
2021/05/18 08:08:14;;;;;;;14.97;4.47;;;17.50;88.00;;;;;;4953073;28;20122;-77
2021/05/18 08:10:45;;;;;;;10.18;4.80;;;17.20;88.00;;;;;;4952972;28;20041;-77
2021/05/18 08:13:12;;;;;;;7.80;3.75;;;17.10;88.40;;;;;;4953002;28;20039;-77
2021/05/18 08:16:45;;;;;;;5.28;3.60;;;16.70;86.90;;;;;;4953201;28;20035;-76
2021/05/18 08:21:35;;;;;;;13.00;4.03;;;16.30;87.50;;;;;;4953005;28;20099;-76
2021/05/18 10:35:48;;;;;;;8.07;3.83;;;18.70;75.80;;;;;;4956868;28;20023;-76
2021/05/18 10:38:24;;;;;;;8.13;3.20;;;18.90;74.60;;;;;;4969411;28;20047;-76
2021/05/18 10:40:52;;;;;;;3.63;2.60;;;18.90;73.60;;;;;;4954842;28;20067;-75
2021/05/18 10:43:29;;;;;;;8.48;3.30;;;19.20;71.20;;;;;;4954297;28;20077;-77
2021/05/18 10:45:56;;;;;;;9.35;3.35;;;18.80;70.70;;;;;;4953792;28;20086;-76
2021/05/18 10:48:37;;;;;;;7.10;2.70;;;18.70;70.80;;;;;;4953874;28;20106;-78
2021/05/18 10:51:30;;;;;;;7.45;3.58;;;18.90;71.70;;;;;;4954635;28;20453;-79
2021/05/18 10:54:14;;;;;;;5.82;3.20;;;18.90;71.90;;;;;;4954556;28;20085;-81
2021/05/18 10:56:55;;;;;;;8.70;3.50;;;18.70;72.40;;;;;;4971311;28;20020;-79
2021/05/18 10:59:23;;;;;;;8.95;3.17;;;18.70;73.50;;;;;;4954654;28;20751;-76
2021/05/18 11:01:55;;;;;;;4.07;3.40;;;18.80;73.50;;;;;;4969551;28;20454;-75
2021/05/18 11:04:21;;;;;;;11.90;3.97;;;18.30;73.70;;;;;;4954022;28;20050;-75
2021/05/18 11:06:57;;;;;;;3.97;2.92;;;18.40;73.70;;;;;;4954398;28;20043;-76
2021/05/18 11:09:24;;;;;;;5.95;2.42;;;18.20;72.20;;;;;;4954116;28;20051;-75
2021/05/18 11:12:09;;;;;;;2.83;2.17;;;18.40;68.60;;;;;;4955846;29;20110;-75
2021/05/18 11:14:37;;;;;;;6.18;2.38;;;18.80;72.00;;;;;;4953985;28;20470;-74
2021/05/18 11:17:49;;;;;;;8.20;2.72;;;19.30;70.60;;;;;;4953984;28;20046;-75
2021/05/18 11:23:26;;;;;;;3.75;2.05;;;19.70;68.90;;;;;;4951937;28;20031;-74
2021/05/18 11:25:55;;;;;;;6.07;2.47;;;19.60;66.60;;;;;;4953798;28;20138;-75
2021/05/18 11:28:46;;;;;;;4.03;2.35;;;19.70;66.40;;;;;;4953524;28;20469;-75
2021/05/18 11:31:24;;;;;;;6.53;2.28;;;19.70;65.50;;;;;;4952846;28;20086;-74
2021/05/18 11:33:52;;;;;;;5.40;3.60;;;19.60;66.00;;;;;;4953661;28;20039;-75
2021/05/18 11:36:24;;;;;;;4.07;2.45;;;19.30;66.80;;;;;;4953427;28;20086;-75
2021/05/18 11:38:58;;;;;;;5.55;3.00;;;19.10;66.90;;;;;;4955398;28;20031;-75
2021/05/18 11:41:25;;;;;;;5.60;3.15;;;19.00;67.40;;;;;;4952907;28;20130;-78
2021/05/18 11:43:54;;;;;;;6.85;2.92;;;18.70;68.20;;;;;;4953702;28;20183;-76
2021/05/18 11:46:20;;;;;;;27.52;14.77;;;18.80;69.20;;;;;;4953569;28;20035;-76
2021/05/18 11:49:00;;;;;;;8.43;4.88;;;18.90;69.30;;;;;;4946649;28;20047;-77
2021/05/18 11:51:29;;;;;;;10.98;4.63;;;19.00;68.50;;;;;;4938953;28;20051;-76
2021/05/18 11:54:01;;;;;;;8.70;3.35;;;19.10;68.00;;;;;;4953315;28;20042;-78
2021/05/18 11:56:29;;;;;;;8.38;2.83;;;19.30;67.20;;;;;;4969594;28;20094;-77
2021/05/18 11:58:58;;;;;;;4.70;2.60;;;19.40;66.30;;;;;;4944891;28;20042;-76
2021/05/18 12:01:24;;;;;;;5.10;2.83;;;19.50;64.80;;;;;;4934073;28;20547;-76
2021/05/18 12:04:01;;;;;;;6.10;2.83;;;19.80;64.60;;;;;;4951808;28;20484;-76
2021/05/18 12:06:27;;;;;;;3.30;1.90;;;19.90;64.70;;;;;;4953198;28;20028;-77
2021/05/18 12:08:57;;;;;;;7.63;2.80;;;20.10;63.30;;;;;;4955360;28;20059;-77
2021/05/18 12:11:23;;;;;;;6.60;2.72;;;20.10;62.80;;;;;;4954007;28;20034;-76
2021/05/18 12:13:52;;;;;;;4.32;2.42;;;19.70;62.90;;;;;;4952974;28;20039;-76
2021/05/18 12:16:21;;;;;;;4.53;2.60;;;19.50;65.20;;;;;;4952821;28;20039;-75
2021/05/18 12:18:52;;;;;;;4.60;2.78;;;19.70;65.30;;;;;;4952769;28;20035;-75
2021/05/18 12:21:20;;;;;;;9.38;3.00;;;19.70;64.90;;;;;;4968176;28;20027;-76
2021/05/18 12:24:24;;;;;;;7.38;3.20;;;19.70;65.20;;;;;;4953226;29;20343;-73
2021/05/18 12:26:58;;;;;;;6.55;2.45;;;19.60;64.70;;;;;;4953251;29;20135;-76
2021/05/18 12:29:52;;;;;;;5.35;2.80;;;19.50;65.10;;;;;;4952870;28;20129;-79
2021/05/18 12:32:33;;;;;;;6.22;2.97;;;19.40;66.00;;;;;;4967997;28;20035;-77
2021/05/18 12:35:20;;;;;;;5.25;3.03;;;19.30;65.40;;;;;;4952422;28;20118;-76
2021/05/18 12:37:51;;;;;;;6.07;3.40;;;19.30;65.50;;;;;;4937549;28;20102;-76
2021/05/18 12:40:20;;;;;;;7.82;3.55;;;19.20;65.50;;;;;;4939870;28;20047;-76
2021/05/18 12:42:47;;;;;;;8.15;3.30;;;19.20;66.00;;;;;;4955315;28;20508;-76
2021/05/18 12:45:16;;;;;;;6.40;3.22;;;18.90;65.60;;;;;;4952193;28;20571;-76
2021/05/18 12:47:42;;;;;;;8.73;4.15;;;18.60;66.40;;;;;;4954568;29;20064;-76
2021/05/18 12:50:11;;;;;;;6.32;3.28;;;18.80;66.40;;;;;;4952493;28;20043;-75
2021/05/18 12:52:43;;;;;;;6.00;3.60;;;19.00;66.60;;;;;;4951782;28;20047;-85
2021/05/18 12:55:24;;;;;;;8.35;4.00;;;18.90;66.10;;;;;;4952476;28;20043;-75
2021/05/18 12:57:52;;;;;;;7.30;3.63;;;18.60;66.20;;;;;;4952276;28;20035;-75
2021/05/18 13:00:29;;;;;;;10.93;3.67;;;18.90;66.80;;;;;;4952079;28;20066;-74
2021/05/18 13:03:06;;;;;;;4.10;3.47;;;18.90;66.60;;;;;;4952255;28;20524;-76
2021/05/18 13:05:32;;;;;;;6.10;3.53;;;19.00;66.90;;;;;;4953813;28;20031;-78
2021/05/18 13:08:17;;;;;;;9.23;4.15;;;18.90;67.00;;;;;;4952239;28;20429;-74
2021/05/18 13:11:12;;;;;;;9.93;4.22;;;18.90;67.50;;;;;;4952042;28;20100;-74
2021/05/18 13:13:37;;;;;;;36.03;4.90;;;18.80;67.10;;;;;;4951892;28;20050;-75
2021/05/18 13:16:16;;;;;;;8.45;4.50;;;18.80;67.00;;;;;;4951979;28;20048;-78
2021/05/18 13:18:51;;;;;;;10.25;3.92;;;18.40;67.30;;;;;;4951561;28;20370;-75
2021/05/18 13:21:41;;;;;;;11.55;4.25;;;18.40;67.00;;;;;;4951224;28;20032;-76
2021/05/18 13:26:36;;;;;;;;;;;18.10;67.20;;;;;;4954398;28;20031;-78
2021/05/18 13:29:15;;;;;;;6.27;3.67;;;18.00;67.70;;;;;;4952482;28;20407;-77
2021/05/18 13:31:42;;;;;;;5.78;3.80;;;18.20;67.10;;;;;;4968612;28;20074;-75
2021/05/18 13:34:08;;;;;;;6.28;3.17;;;18.20;66.20;;;;;;4966507;28;20047;-77
2021/05/18 13:36:35;;;;;;;12.18;3.30;;;18.20;66.30;;;;;;4951293;28;20042;-78
2021/05/18 13:39:03;;;;;;;4.95;3.20;;;18.20;66.30;;;;;;4951601;28;20030;-75
2021/05/18 13:41:29;;;;;;;12.40;3.63;;;18.20;66.30;;;;;;4953611;28;20023;-77
2021/05/18 13:43:55;;;;;;;7.43;3.70;;;18.20;66.40;;;;;;4951304;28;20050;-78
2021/05/18 13:46:21;;;;;;;13.10;4.50;;;18.10;66.80;;;;;;4951930;28;20321;-77
2021/05/18 13:48:46;;;;;;;7.60;3.78;;;17.90;68.20;;;;;;4951888;28;20476;-78
2021/05/18 13:51:16;;;;;;;6.30;4.28;;;18.00;68.70;;;;;;4950463;28;20028;-78
2021/05/18 13:53:42;;;;;;;5.85;3.40;;;18.00;68.30;;;;;;4953219;28;20118;-76
2021/05/18 13:56:09;;;;;;;11.20;4.88;;;18.00;68.40;;;;;;4966541;28;20050;-77
2021/05/18 13:58:35;;;;;;;7.30;3.67;;;18.00;68.60;;;;;;4951351;28;20053;-74
2021/05/18 14:01:09;;;;;;;8.07;3.63;;;18.00;67.60;;;;;;4951533;28;20138;-74
2021/05/18 14:03:35;;;;;;;9.13;4.35;;;18.00;67.20;;;;;;4951070;28;20122;-75
2021/05/18 14:06:02;;;;;;;6.05;2.90;;;18.30;67.90;;;;;;4965770;28;20027;-75
2021/05/18 14:08:31;;;;;;;13.52;3.70;;;18.40;66.90;;;;;;4952630;28;20357;-72
2021/05/18 14:11:17;;;;;;;10.07;4.05;;;18.50;67.50;;;;;;4951133;28;20053;-73
2021/05/18 14:13:52;;;;;;;7.80;4.05;;;18.40;70.80;;;;;;4951135;28;20039;-74
2021/05/18 14:16:19;;;;;;;11.73;4.88;;;18.30;72.50;;;;;;4949955;28;20062;-74
2021/05/18 14:18:53;;;;;;;12.43;4.50;;;18.50;73.40;;;;;;4951171;28;20473;-75
2021/05/18 14:21:26;;;;;;;11.48;5.13;;;18.40;73.70;;;;;;4950818;28;20023;-72
2021/05/18 14:26:22;;;;;;;14.60;4.88;;;18.50;74.00;;;;;;4951099;28;20035;-72
2021/05/18 14:28:47;;;;;;;8.65;4.38;;;18.60;74.00;;;;;;4951112;28;20067;-72
2021/05/18 14:31:14;;;;;;;9.88;4.10;;;18.80;73.50;;;;;;4950720;28;20354;-74
2021/05/18 14:33:41;;;;;;;9.52;4.28;;;18.90;73.10;;;;;;4950785;28;20038;-76
2021/05/18 14:36:08;;;;;;;8.98;4.18;;;19.00;72.60;;;;;;4949214;28;20110;-74
2021/05/18 14:38:35;;;;;;;12.67;5.30;;;18.90;71.70;;;;;;4933340;29;20132;-74
2021/05/18 14:46:27;;;;;;;9.35;4.40;;;18.70;72.20;;;;;;4950534;28;20043;-73
2021/05/18 14:56:47;;;;;;;7.55;3.78;;;18.20;74.30;;;;;;4952406;28;20110;-75
2021/05/18 14:59:12;;;;;;;9.38;4.35;;;17.90;75.10;;;;;;4950518;28;20127;-73
2021/05/18 15:01:38;;;;;;;8.55;4.30;;;17.80;75.30;;;;;;4950482;28;20433;-73
2021/05/18 15:04:04;;;;;;;18.58;4.35;;;17.70;75.20;;;;;;4950881;28;20055;-74
2021/05/18 15:06:33;;;;;;;26.85;5.07;;;17.70;75.40;;;;;;4950788;28;20034;-74
2021/05/18 15:08:58;;;;;;;9.07;3.45;;;17.50;75.50;;;;;;4965918;28;20367;-73
2021/05/18 15:11:24;;;;;;;9.20;3.40;;;17.50;75.10;;;;;;4991394;28;20080;-73
2021/05/18 15:13:50;;;;;;;4.53;2.58;;;17.60;74.80;;;;;;4989764;28;20128;-73
2021/05/18 15:16:16;;;;;;;7.20;3.10;;;17.60;72.90;;;;;;4991896;28;20038;-73
2021/05/18 15:18:44;;;;;;;4.00;2.70;;;17.70;72.40;;;;;;4993008;28;20031;-72
2021/05/18 15:21:10;;;;;;;6.93;2.42;;;17.60;72.20;;;;;;4993188;28;20030;-74
2021/05/18 15:23:36;;;;;;;4.00;2.50;;;17.80;72.40;;;;;;4994448;28;20058;-72
2021/05/18 15:26:01;;;;;;;9.13;3.00;;;17.60;72.10;;;;;;4993220;28;20081;-73
2021/05/18 15:28:27;;;;;;;6.65;3.17;;;17.70;72.40;;;;;;4992636;28;20512;-75
2021/05/18 15:30:54;;;;;;;6.07;2.58;;;17.60;72.30;;;;;;4992661;28;20137;-74
2021/05/18 15:33:20;;;;;;;6.20;2.50;;;17.80;71.60;;;;;;4992600;28;20439;-74
2021/05/18 15:35:45;;;;;;;8.27;2.92;;;17.70;71.20;;;;;;4994430;28;20026;-74
2021/05/18 15:38:11;;;;;;;2.83;1.77;;;17.70;71.60;;;;;;4992349;28;20121;-73
2021/05/18 15:40:37;;;;;;;2.78;1.58;;;17.60;72.20;;;;;;4992812;28;20038;-73
2021/05/18 15:43:02;;;;;;;5.78;1.75;;;17.70;73.20;;;;;;4992982;28;20125;-75
2021/05/18 15:45:28;;;;;;;7.70;2.38;;;17.50;74.50;;;;;;4992538;28;20507;-76
2021/05/18 15:47:54;;;;;;;8.20;2.15;;;17.40;75.60;;;;;;4991744;28;20026;-76
2021/05/18 15:50:19;;;;;;;4.72;2.70;;;17.30;76.50;;;;;;4994105;28;20030;-75
2021/05/18 15:52:45;;;;;;;4.45;2.55;;;17.30;77.20;;;;;;4992515;28;20452;-74
2021/05/18 15:55:11;;;;;;;5.13;2.60;;;17.30;77.80;;;;;;4991268;28;20324;-75
2021/05/18 15:57:36;;;;;;;7.10;2.88;;;17.00;78.20;;;;;;4991400;28;20046;-75
2021/05/18 16:00:04;;;;;;;6.28;3.03;;;16.80;79.40;;;;;;4991007;28;20031;-75
2021/05/18 16:02:30;;;;;;;;;;;16.90;80.70;;;;;;4994206;28;20029;-72
2021/05/18 16:04:55;;;;;;;7.38;4.45;;;17.00;81.40;;;;;;4992197;28;19914;-75
2021/05/18 16:07:22;;;;;;;7.30;3.80;;;16.90;82.50;;;;;;4991002;28;20038;-74
2021/05/18 16:09:48;;;;;;;10.30;4.15;;;16.80;83.70;;;;;;4991946;28;20034;-73
2021/05/18 16:12:14;;;;;;;14.25;4.55;;;16.50;84.60;;;;;;4991788;28;20057;-75
2021/05/18 16:14:40;;;;;;;12.75;4.50;;;16.70;84.80;;;;;;4992466;28;20033;-74
2021/05/18 16:17:06;;;;;;;9.73;4.43;;;16.60;85.60;;;;;;4991493;28;20046;-73
2021/05/18 16:19:32;;;;;;;8.85;4.63;;;16.60;86.30;;;;;;4990430;28;20038;-73
2021/05/18 16:21:57;;;;;;;7.07;4.25;;;16.70;86.10;;;;;;4991405;28;20045;-73
2021/05/18 16:24:25;;;;;;;7.40;4.88;;;16.60;86.70;;;;;;4991481;28;20034;-74
2021/05/18 16:26:53;;;;;;;9.10;4.50;;;16.70;86.60;;;;;;4992038;28;20757;-74
2021/05/18 16:29:18;;;;;;;;;;;16.80;85.90;;;;;;4991627;28;20104;-72
2021/05/18 16:31:44;;;;;;;7.60;4.72;;;16.70;86.40;;;;;;4990850;28;19913;-74
2021/05/18 16:34:10;;;;;;;6.80;4.32;;;16.70;85.80;;;;;;4991085;28;20061;-72
2021/05/18 16:36:35;;;;;;;7.63;4.45;;;16.60;86.70;;;;;;4991425;28;20042;-70
2021/05/18 16:39:02;;;;;;;9.80;4.68;;;16.70;86.80;;;;;;4980180;28;20044;-72
2021/05/18 16:41:28;;;;;;;11.18;5.43;;;16.60;87.00;;;;;;4972585;28;20527;-73
2021/05/18 16:43:53;;;;;;;9.38;4.65;;;16.50;86.90;;;;;;4972119;28;20039;-73
2021/05/18 16:46:19;;;;;;;7.60;4.70;;;16.50;86.50;;;;;;4972247;28;20046;-73
2021/05/18 16:48:44;;;;;;;10.35;4.97;;;16.60;86.00;;;;;;4972507;28;20050;-76
2021/05/18 16:51:11;;;;;;;9.40;4.70;;;16.30;86.80;;;;;;4970300;28;20027;-74
2021/05/18 16:53:37;;;;;;;15.93;5.53;;;16.50;86.90;;;;;;4954271;28;20034;-75
2021/05/18 16:56:06;;;;;;;10.88;4.60;;;16.50;86.40;;;;;;4969503;28;20043;-76
2021/05/18 16:58:32;;;;;;;11.05;4.50;;;16.50;86.40;;;;;;4972955;28;20377;-76
2021/05/18 17:00:59;;;;;;;9.07;4.78;;;16.60;86.60;;;;;;4972432;28;20034;-74
2021/05/18 17:03:25;;;;;;;9.60;4.63;;;16.60;86.20;;;;;;4972109;28;20119;-74
2021/05/18 17:05:50;;;;;;;10.07;4.70;;;16.70;86.40;;;;;;4973427;28;20054;-75
2021/05/18 17:08:16;;;;;;;10.60;4.60;;;16.70;86.20;;;;;;4971365;28;20133;-73
2021/05/18 17:10:42;;;;;;;13.73;5.07;;;16.70;86.40;;;;;;4971614;28;20035;-73
2021/05/18 17:13:09;;;;;;;14.50;5.53;;;16.70;85.80;;;;;;4971245;28;20058;-73
2021/05/18 17:15:36;;;;;;;11.20;5.03;;;16.80;85.90;;;;;;4971192;28;20122;-75
2021/05/18 17:18:02;;;;;;;9.10;4.82;;;16.60;86.60;;;;;;4970251;28;20058;-73
2021/05/18 17:20:29;;;;;;;10.10;4.65;;;16.50;86.90;;;;;;4953732;28;20065;-72
2021/05/18 17:22:55;;;;;;;12.18;5.55;;;16.70;87.30;;;;;;4969626;28;20165;-82
2021/05/18 17:25:21;;;;;;;8.38;4.45;;;16.90;86.80;;;;;;4972963;28;20035;-79
2021/05/18 17:27:47;;;;;;;10.23;5.00;;;17.00;86.60;;;;;;4971823;28;20054;-80
2021/05/18 17:30:19;;;;;;;7.97;4.05;;;16.80;86.60;;;;;;4970984;28;20365;-72
2021/05/18 17:32:44;;;;;;;8.18;4.25;;;16.80;86.70;;;;;;4972428;28;20022;-73
2021/05/18 17:35:11;;;;;;;6.38;3.88;;;16.80;86.60;;;;;;4970894;28;20035;-72
2021/05/18 17:37:39;;;;;;;7.30;3.53;;;16.70;86.60;;;;;;4970181;28;20027;-71
2021/05/18 17:40:07;;;;;;;7.95;3.55;;;16.80;86.90;;;;;;4970064;28;20038;-81
2021/05/18 17:42:33;;;;;;;4.85;2.88;;;16.80;86.30;;;;;;4970593;28;20049;-72
2021/05/18 17:45:02;;;;;;;6.90;3.40;;;16.90;88.10;;;;;;4971665;28;20027;-74